sensor_id;sensor_type;location;lat;lon;timestamp;pressure;altitude;pressure_sealevel;temperature;humidity
44457;BME280;30159;49.316;8.558;2022-10-04T00:02:22;101189.50;;;9.04;100.00
44457;BME280;30159;49.316;8.558;2022-10-04T00:04:53;101189.75;;;9.03;100.00
44457;BME280;30159;49.316;8.558;2022-10-04T00:07:23;101181.34;;;8.99;100.00
44457;BME280;30159;49.316;8.558;2022-10-04T00:09:53;101183.22;;;8.99;100.00
44457;BME280;30159;49.316;8.558;2022-10-04T00:12:24;101193.41;;;8.97;100.00
44457;BME280;30159;49.316;8.558;2022-10-04T00:14:54;101198.56;;;8.98;100.00
44457;BME280;30159;49.316;8.558;2022-10-04T00:17:25;101159.00;;;8.77;100.00
44457;BME280;30159;49.316;8.558;2022-10-04T00:19:53;101196.13;;;8.97;100.00
44457;BME280;30159;49.316;8.558;2022-10-04T00:22:24;101181.28;;;8.94;100.00
44457;BME280;30159;49.316;8.558;2022-10-04T00:25:18;101180.66;;;8.87;100.00
44457;BME280;30159;49.316;8.558;2022-10-04T00:28:30;101180.34;;;8.83;100.00
44457;BME280;30159;49.316;8.558;2022-10-04T00:31:22;101173.50;;;8.76;100.00
44457;BME280;30159;49.316;8.558;2022-10-04T00:33:54;101171.88;;;8.75;100.00
44457;BME280;30159;49.316;8.558;2022-10-04T00:36:43;101181.25;;;8.72;100.00
44457;BME280;30159;49.316;8.558;2022-10-04T00:39:17;101181.84;;;8.74;100.00
44457;BME280;30159;49.316;8.558;2022-10-04T00:42:01;101181.25;;;8.72;100.00
44457;BME280;30159;49.316;8.558;2022-10-04T00:44:36;101187.22;;;8.74;100.00
44457;BME280;30159;49.316;8.558;2022-10-04T00:47:13;101193.41;;;8.75;100.00
44457;BME280;30159;49.316;8.558;2022-10-04T00:49:46;101186.38;;;8.74;100.00
44457;BME280;30159;49.316;8.558;2022-10-04T00:52:19;101197.22;;;8.79;100.00
44457;BME280;30159;49.316;8.558;2022-10-04T00:54:50;101195.41;;;8.84;100.00
44457;BME280;30159;49.316;8.558;2022-10-04T00:57:20;101175.63;;;8.74;100.00
44457;BME280;30159;49.316;8.558;2022-10-04T00:59:51;101184.09;;;8.82;100.00
44457;BME280;30159;49.316;8.558;2022-10-04T01:02:20;101177.16;;;8.86;100.00
44457;BME280;30159;49.316;8.558;2022-10-04T01:04:50;101180.16;;;8.90;100.00
44457;BME280;30159;49.316;8.558;2022-10-04T01:07:22;101175.28;;;8.87;100.00
44457;BME280;30159;49.316;8.558;2022-10-04T01:09:53;101178.47;;;8.84;100.00
44457;BME280;30159;49.316;8.558;2022-10-04T01:12:27;101164.06;;;8.73;100.00
44457;BME280;30159;49.316;8.558;2022-10-04T01:15:04;101173.44;;;8.71;100.00
44457;BME280;30159;49.316;8.558;2022-10-04T01:17:31;101174.09;;;8.61;100.00
44457;BME280;30159;49.316;8.558;2022-10-04T01:19:58;101174.84;;;8.56;100.00
44457;BME280;30159;49.316;8.558;2022-10-04T01:22:34;101123.84;;;8.11;100.00
44457;BME280;30159;49.316;8.558;2022-10-04T01:25:01;101165.72;;;8.23;100.00
44457;BME280;30159;49.316;8.558;2022-10-04T01:27:34;101139.41;;;8.09;100.00
44457;BME280;30159;49.316;8.558;2022-10-04T01:30:04;101145.69;;;8.14;100.00
44457;BME280;30159;49.316;8.558;2022-10-04T01:32:33;101147.72;;;8.07;100.00
44457;BME280;30159;49.316;8.558;2022-10-04T01:35:00;101143.38;;;8.06;100.00
44457;BME280;30159;49.316;8.558;2022-10-04T01:37:27;101130.53;;;8.08;100.00
44457;BME280;30159;49.316;8.558;2022-10-04T01:39:55;101134.75;;;8.04;100.00
44457;BME280;30159;49.316;8.558;2022-10-04T01:42:25;101133.38;;;8.01;100.00
44457;BME280;30159;49.316;8.558;2022-10-04T01:44:57;101081.84;;;7.71;100.00
44457;BME280;30159;49.316;8.558;2022-10-04T01:47:29;101130.53;;;8.08;100.00
44457;BME280;30159;49.316;8.558;2022-10-04T01:50:00;101126.81;;;8.09;100.00
44457;BME280;30159;49.316;8.558;2022-10-04T01:52:32;101086.09;;;7.84;100.00
44457;BME280;30159;49.316;8.558;2022-10-04T01:55:05;101112.16;;;8.00;100.00
44457;BME280;30159;49.316;8.558;2022-10-04T01:57:34;101120.94;;;8.12;100.00
44457;BME280;30159;49.316;8.558;2022-10-04T02:00:05;101120.59;;;8.09;100.00
44457;BME280;30159;49.316;8.558;2022-10-04T02:02:35;101120.44;;;7.98;100.00
44457;BME280;30159;49.316;8.558;2022-10-04T02:05:09;101026.03;;;7.39;100.00
44457;BME280;30159;49.316;8.558;2022-10-04T02:07:38;101119.06;;;7.96;100.00
44457;BME280;30159;49.316;8.558;2022-10-04T02:10:09;101110.34;;;7.89;100.00
44457;BME280;30159;49.316;8.558;2022-10-04T02:12:42;101100.50;;;7.77;100.00
44457;BME280;30159;49.316;8.558;2022-10-04T02:15:11;101120.59;;;7.92;100.00
44457;BME280;30159;49.316;8.558;2022-10-04T02:17:40;100963.47;;;7.05;100.00
44457;BME280;30159;49.316;8.558;2022-10-04T02:20:12;101107.88;;;8.04;100.00
44457;BME280;30159;49.316;8.558;2022-10-04T02:22:39;101079.66;;;7.85;100.00
44457;BME280;30159;49.316;8.558;2022-10-04T02:25:09;101105.06;;;7.94;100.00
44457;BME280;30159;49.316;8.558;2022-10-04T02:27:36;101099.09;;;7.92;100.00
44457;BME280;30159;49.316;8.558;2022-10-04T02:30:08;101093.44;;;7.88;100.00
44457;BME280;30159;49.316;8.558;2022-10-04T02:32:37;101098.78;;;7.88;100.00
44457;BME280;30159;49.316;8.558;2022-10-04T02:35:32;101067.03;;;7.68;100.00
44457;BME280;30159;49.316;8.558;2022-10-04T02:38:08;101086.19;;;7.89;100.00
44457;BME280;30159;49.316;8.558;2022-10-04T02:40:40;101087.72;;;7.85;100.00
44457;BME280;30159;49.316;8.558;2022-10-04T02:43:13;101045.88;;;7.55;100.00
44457;BME280;30159;49.316;8.558;2022-10-04T02:45:46;101076.97;;;7.85;100.00
44457;BME280;30159;49.316;8.558;2022-10-04T02:48:30;101077.13;;;7.78;100.00
44457;BME280;30159;49.316;8.558;2022-10-04T02:51:16;101072.56;;;7.78;100.00
44457;BME280;30159;49.316;8.558;2022-10-04T02:53:49;101044.56;;;7.57;100.00
44457;BME280;30159;49.316;8.558;2022-10-04T02:56:20;101064.13;;;7.87;100.00
44457;BME280;30159;49.316;8.558;2022-10-04T02:58:49;101074.88;;;7.87;100.00
44457;BME280;30159;49.316;8.558;2022-10-04T03:01:24;101072.50;;;7.90;100.00
44457;BME280;30159;49.316;8.558;2022-10-04T03:03:52;101021.78;;;7.43;100.00
44457;BME280;30159;49.316;8.558;2022-10-04T03:06:21;101072.50;;;7.73;100.00
44457;BME280;30159;49.316;8.558;2022-10-04T03:08:52;101038.53;;;7.50;100.00
44457;BME280;30159;49.316;8.558;2022-10-04T03:11:23;101091.06;;;7.75;100.00
44457;BME280;30159;49.316;8.558;2022-10-04T03:13:53;100954.09;;;6.90;100.00
44457;BME280;30159;49.316;8.558;2022-10-04T03:16:21;101077.53;;;7.70;100.00
44457;BME280;30159;49.316;8.558;2022-10-04T03:18:50;101073.94;;;7.64;100.00
44457;BME280;30159;49.316;8.558;2022-10-04T03:21:20;101073.47;;;7.67;100.00
44457;BME280;30159;49.316;8.558;2022-10-04T03:23:48;101072.41;;;7.68;100.00
44457;BME280;30159;49.316;8.558;2022-10-04T03:26:24;101062.16;;;7.65;100.00
44457;BME280;30159;49.316;8.558;2022-10-04T03:28:53;101029.53;;;7.39;100.00
44457;BME280;30159;49.316;8.558;2022-10-04T03:31:21;101064.78;;;7.60;100.00
44457;BME280;30159;49.316;8.558;2022-10-04T03:33:49;101045.94;;;7.43;100.00
44457;BME280;30159;49.316;8.558;2022-10-04T03:36:17;101064.78;;;7.60;100.00
44457;BME280;30159;49.316;8.558;2022-10-04T03:38:45;101062.16;;;7.65;100.00
44457;BME280;30159;49.316;8.558;2022-10-04T03:41:13;101058.25;;;7.56;100.00
44457;BME280;30159;49.316;8.558;2022-10-04T03:43:44;101059.78;;;7.52;100.00
44457;BME280;30159;49.316;8.558;2022-10-04T03:46:12;101051.00;;;7.56;100.00
44457;BME280;30159;49.316;8.558;2022-10-04T03:48:42;101052.38;;;7.59;100.00
44457;BME280;30159;49.316;8.558;2022-10-04T03:51:13;100890.16;;;6.53;100.00
44457;BME280;30159;49.316;8.558;2022-10-04T03:53:43;101055.66;;;7.61;100.00
44457;BME280;30159;49.316;8.558;2022-10-04T03:56:12;101062.09;;;7.60;100.00
44457;BME280;30159;49.316;8.558;2022-10-04T03:58:43;101075.41;;;7.55;100.00
44457;BME280;30159;49.316;8.558;2022-10-04T04:01:16;101067.19;;;7.45;100.00
44457;BME280;30159;49.316;8.558;2022-10-04T04:03:53;101076.63;;;7.47;100.00
44457;BME280;30159;49.316;8.558;2022-10-04T04:06:21;100954.63;;;6.75;100.00
44457;BME280;30159;49.316;8.558;2022-10-04T04:08:51;101082.78;;;7.48;100.00
44457;BME280;30159;49.316;8.558;2022-10-04T04:11:21;101064.06;;;7.36;100.00
44457;BME280;30159;49.316;8.558;2022-10-04T04:13:56;101055.28;;;7.41;100.00
44457;BME280;30159;49.316;8.558;2022-10-04T04:16:24;101075.50;;;7.60;100.00
44457;BME280;30159;49.316;8.558;2022-10-04T04:18:52;101075.00;;;7.63;100.00
44457;BME280;30159;49.316;8.558;2022-10-04T04:21:24;101080.97;;;7.65;100.00
44457;BME280;30159;49.316;8.558;2022-10-04T04:23:55;101078.19;;;7.77;100.00
44457;BME280;30159;49.316;8.558;2022-10-04T04:26:25;101082.56;;;7.83;100.00
44457;BME280;30159;49.316;8.558;2022-10-04T04:29:00;101081.84;;;7.88;100.00
44457;BME280;30159;49.316;8.558;2022-10-04T04:31:31;101026.13;;;7.61;100.00
44457;BME280;30159;49.316;8.558;2022-10-04T04:34:00;101083.00;;;7.92;100.00
44457;BME280;30159;49.316;8.558;2022-10-04T04:36:29;101080.88;;;7.94;100.00
44457;BME280;30159;49.316;8.558;2022-10-04T04:39:06;101060.13;;;7.89;100.00
44457;BME280;30159;49.316;8.558;2022-10-04T04:41:50;101083.16;;;8.02;100.00
44457;BME280;30159;49.316;8.558;2022-10-04T04:44:18;101084.78;;;8.03;100.00
44457;BME280;30159;49.316;8.558;2022-10-04T04:46:46;101057.03;;;7.80;100.00
44457;BME280;30159;49.316;8.558;2022-10-04T04:49:14;101037.59;;;7.73;100.00
44457;BME280;30159;49.316;8.558;2022-10-04T04:51:46;101081.03;;;8.04;100.00
44457;BME280;30159;49.316;8.558;2022-10-04T04:54:15;101087.13;;;7.99;100.00
44457;BME280;30159;49.316;8.558;2022-10-04T04:56:42;101090.97;;;7.87;100.00
44457;BME280;30159;49.316;8.558;2022-10-04T04:59:10;101094.53;;;7.75;100.00
44457;BME280;30159;49.316;8.558;2022-10-04T05:01:43;101041.00;;;7.52;100.00
44457;BME280;30159;49.316;8.558;2022-10-04T05:04:17;101085.75;;;7.80;100.00
44457;BME280;30159;49.316;8.558;2022-10-04T05:06:45;101079.88;;;7.83;100.00
44457;BME280;30159;49.316;8.558;2022-10-04T05:09:23;101031.16;;;7.57;100.00
44457;BME280;30159;49.316;8.558;2022-10-04T05:11:51;101081.53;;;7.84;100.00
44457;BME280;30159;49.316;8.558;2022-10-04T05:14:18;101015.69;;;7.31;100.00
44457;BME280;30159;49.316;8.558;2022-10-04T05:16:48;101074.34;;;7.56;100.00
44457;BME280;30159;49.316;8.558;2022-10-04T05:19:18;101094.63;;;7.64;100.00
44457;BME280;30159;49.316;8.558;2022-10-04T05:21:47;101069.50;;;7.70;100.00
44457;BME280;30159;49.316;8.558;2022-10-04T05:24:20;101065.59;;;7.77;100.00
44457;BME280;30159;49.316;8.558;2022-10-04T05:26:49;101082.53;;;7.95;100.00
44457;BME280;30159;49.316;8.558;2022-10-04T05:29:19;101100.91;;;8.03;100.00
44457;BME280;30159;49.316;8.558;2022-10-04T05:31:52;101096.00;;;8.17;100.00
44457;BME280;30159;49.316;8.558;2022-10-04T05:34:23;101033.59;;;7.93;100.00
44457;BME280;30159;49.316;8.558;2022-10-04T05:37:05;101092.25;;;8.35;100.00
44457;BME280;30159;49.316;8.558;2022-10-04T05:39:39;101081.59;;;8.40;100.00
44457;BME280;30159;49.316;8.558;2022-10-04T05:42:14;101074.00;;;8.54;100.00
44457;BME280;30159;49.316;8.558;2022-10-04T05:44:45;101083.09;;;8.53;100.00
44457;BME280;30159;49.316;8.558;2022-10-04T05:47:16;101079.31;;;8.49;100.00
44457;BME280;30159;49.316;8.558;2022-10-04T05:49:49;100902.50;;;7.51;100.00
44457;BME280;30159;49.316;8.558;2022-10-04T05:52:26;100794.69;;;6.81;100.00
44457;BME280;30159;49.316;8.558;2022-10-04T05:55:17;101051.09;;;8.51;100.00
44457;BME280;30159;49.316;8.558;2022-10-04T05:57:54;101065.06;;;8.70;100.00
44457;BME280;30159;49.316;8.558;2022-10-04T06:00:34;101061.06;;;8.73;100.00
44457;BME280;30159;49.316;8.558;2022-10-04T06:03:25;101065.63;;;8.72;100.00
44457;BME280;30159;49.316;8.558;2022-10-04T06:05:56;101066.47;;;8.78;100.00
44457;BME280;30159;49.316;8.558;2022-10-04T06:08:35;101067.06;;;8.80;100.00
44457;BME280;30159;49.316;8.558;2022-10-04T06:11:16;101040.34;;;8.73;100.00
44457;BME280;30159;49.316;8.558;2022-10-04T06:13:59;101069.03;;;8.90;100.00
44457;BME280;30159;49.316;8.558;2022-10-04T06:16:41;101071.03;;;8.99;100.00
44457;BME280;30159;49.316;8.558;2022-10-04T06:19:44;101075.41;;;9.05;100.00
44457;BME280;30159;49.316;8.558;2022-10-04T06:22:17;101083.53;;;9.11;100.00
44457;BME280;30159;49.316;8.558;2022-10-04T06:24:46;101040.78;;;8.87;100.00
44457;BME280;30159;49.316;8.558;2022-10-04T06:27:18;101093.13;;;9.23;100.00
44457;BME280;30159;49.316;8.558;2022-10-04T06:29:51;101070.97;;;9.16;100.00
44457;BME280;30159;49.316;8.558;2022-10-04T06:32:38;101102.47;;;9.43;100.00
44457;BME280;30159;49.316;8.558;2022-10-04T06:35:33;101099.91;;;9.58;100.00
44457;BME280;30159;49.316;8.558;2022-10-04T06:44:36;101105.03;;;9.60;100.00
44457;BME280;30159;49.316;8.558;2022-10-04T06:47:21;101105.53;;;9.84;100.00
44457;BME280;30159;49.316;8.558;2022-10-04T06:49:54;101110.22;;;9.99;100.00
44457;BME280;30159;49.316;8.558;2022-10-04T06:52:40;101082.09;;;9.84;100.00
44457;BME280;30159;49.316;8.558;2022-10-04T06:55:29;101103.09;;;9.82;100.00
44457;BME280;30159;49.316;8.558;2022-10-04T06:58:10;101104.81;;;9.94;100.00
44457;BME280;30159;49.316;8.558;2022-10-04T07:00:51;101110.38;;;10.19;100.00
44457;BME280;30159;49.316;8.558;2022-10-04T07:03:23;101100.34;;;10.47;100.00
44457;BME280;30159;49.316;8.558;2022-10-04T07:05:54;101112.28;;;10.61;100.00
44457;BME280;30159;49.316;8.558;2022-10-04T07:08:29;101105.91;;;10.83;100.00
44457;BME280;30159;49.316;8.558;2022-10-04T07:11:04;101109.81;;;11.07;100.00
44457;BME280;30159;49.316;8.558;2022-10-04T07:13:43;101102.28;;;11.30;100.00
44457;BME280;30159;49.316;8.558;2022-10-04T07:16:26;101110.44;;;11.40;100.00
44457;BME280;30159;49.316;8.558;2022-10-04T07:18:59;101116.69;;;11.66;100.00
44457;BME280;30159;49.316;8.558;2022-10-04T07:21:35;101062.88;;;11.39;100.00
44457;BME280;30159;49.316;8.558;2022-10-04T07:24:09;101115.06;;;11.86;100.00
44457;BME280;30159;49.316;8.558;2022-10-04T07:26:44;101119.41;;;12.02;100.00
44457;BME280;30159;49.316;8.558;2022-10-04T07:29:15;101124.00;;;12.12;100.00
44457;BME280;30159;49.316;8.558;2022-10-04T07:32:00;101129.94;;;12.29;100.00
44457;BME280;30159;49.316;8.558;2022-10-04T07:34:30;101121.81;;;12.39;100.00
44457;BME280;30159;49.316;8.558;2022-10-04T07:36:59;101102.63;;;12.36;100.00
44457;BME280;30159;49.316;8.558;2022-10-04T07:39:41;101100.16;;;12.39;100.00
44457;BME280;30159;49.316;8.558;2022-10-04T07:42:18;101135.81;;;12.67;100.00
44457;BME280;30159;49.316;8.558;2022-10-04T07:44:56;101122.84;;;12.54;100.00
44457;BME280;30159;49.316;8.558;2022-10-04T07:47:25;101138.78;;;12.76;100.00
44457;BME280;30159;49.316;8.558;2022-10-04T07:49:54;101093.34;;;12.57;100.00
44457;BME280;30159;49.316;8.558;2022-10-04T07:52:42;101119.50;;;12.88;100.00
44457;BME280;30159;49.316;8.558;2022-10-04T07:55:22;101063.91;;;12.46;100.00
44457;BME280;30159;49.316;8.558;2022-10-04T07:57:57;101117.97;;;12.61;100.00
44457;BME280;30159;49.316;8.558;2022-10-04T08:00:30;101112.47;;;12.86;100.00
44457;BME280;30159;49.316;8.558;2022-10-04T08:03:17;101110.84;;;12.85;100.00
44457;BME280;30159;49.316;8.558;2022-10-04T08:05:48;101130.28;;;13.08;100.00
44457;BME280;30159;49.316;8.558;2022-10-04T08:08:28;101119.88;;;13.25;100.00
44457;BME280;30159;49.316;8.558;2022-10-04T08:11:11;101005.69;;;12.53;100.00
44457;BME280;30159;49.316;8.558;2022-10-04T08:13:49;101128.59;;;13.17;100.00
44457;BME280;30159;49.316;8.558;2022-10-04T08:16:29;101129.00;;;12.85;100.00
44457;BME280;30159;49.316;8.558;2022-10-04T08:19:08;101124.84;;;13.08;100.00
44457;BME280;30159;49.316;8.558;2022-10-04T08:21:44;101120.03;;;12.95;100.00
44457;BME280;30159;49.316;8.558;2022-10-04T08:24:20;101119.06;;;13.25;100.00
44457;BME280;30159;49.316;8.558;2022-10-04T08:27:00;101115.75;;;13.43;100.00
44457;BME280;30159;49.316;8.558;2022-10-04T08:29:49;101101.59;;;13.52;100.00
44457;BME280;30159;49.316;8.558;2022-10-04T08:32:30;101112.00;;;13.74;100.00
44457;BME280;30159;49.316;8.558;2022-10-04T08:35:31;101117.00;;;13.56;99.67
44457;BME280;30159;49.316;8.558;2022-10-04T08:38:10;101119.72;;;13.56;99.98
44457;BME280;30159;49.316;8.558;2022-10-04T08:41:18;101120.53;;;13.57;99.45
44457;BME280;30159;49.316;8.558;2022-10-04T08:47:18;101099.91;;;13.95;97.91
44457;BME280;30159;49.316;8.558;2022-10-04T08:50:24;101101.16;;;14.08;96.78
44457;BME280;30159;49.316;8.558;2022-10-04T08:53:12;101102.50;;;14.05;95.83
44457;BME280;30159;49.316;8.558;2022-10-04T08:56:08;101088.47;;;13.69;97.01
44457;BME280;30159;49.316;8.558;2022-10-04T08:58:54;101097.44;;;14.28;97.49
44457;BME280;30159;49.316;8.558;2022-10-04T09:01:45;101089.72;;;14.11;95.99
44457;BME280;30159;49.316;8.558;2022-10-04T09:04:38;101096.44;;;14.19;95.69
44457;BME280;30159;49.316;8.558;2022-10-04T09:07:25;101094.78;;;14.23;94.58
44457;BME280;30159;49.316;8.558;2022-10-04T09:10:20;101088.06;;;14.15;94.77
44457;BME280;30159;49.316;8.558;2022-10-04T09:13:05;101093.84;;;14.32;96.54
44457;BME280;30159;49.316;8.558;2022-10-04T09:15:51;101053.06;;;13.89;95.26
44457;BME280;30159;49.316;8.558;2022-10-04T09:21:24;101053.69;;;13.42;98.36
44457;BME280;30159;49.316;8.558;2022-10-04T09:24:18;101097.97;;;13.66;98.12
44457;BME280;30159;49.316;8.558;2022-10-04T09:26:55;101066.34;;;13.57;99.57
44457;BME280;30159;49.316;8.558;2022-10-04T09:29:37;101101.75;;;13.65;100.00
44457;BME280;30159;49.316;8.558;2022-10-04T09:32:35;101104.69;;;13.74;100.00
44457;BME280;30159;49.316;8.558;2022-10-04T09:38:08;101095.16;;;14.11;98.54
44457;BME280;30159;49.316;8.558;2022-10-04T09:44:05;101088.41;;;14.86;96.59
44457;BME280;30159;49.316;8.558;2022-10-04T09:46:54;101096.72;;;15.13;93.34
44457;BME280;30159;49.316;8.558;2022-10-04T09:52:32;101095.69;;;15.47;91.91
44457;BME280;30159;49.316;8.558;2022-10-04T09:55:31;101104.53;;;15.39;89.07
44457;BME280;30159;49.316;8.558;2022-10-04T10:00:58;101100.34;;;15.47;91.10
44457;BME280;30159;49.316;8.558;2022-10-04T10:03:45;101097.44;;;15.57;90.35
44457;BME280;30159;49.316;8.558;2022-10-04T10:06:46;101095.03;;;15.74;87.73
44457;BME280;30159;49.316;8.558;2022-10-04T10:09:23;101091.53;;;15.55;89.05
44457;BME280;30159;49.316;8.558;2022-10-04T10:12:37;101090.63;;;15.41;90.64
44457;BME280;30159;49.316;8.558;2022-10-04T10:15:32;101085.84;;;15.51;91.19
44457;BME280;30159;49.316;8.558;2022-10-04T10:18:08;101084.44;;;15.54;90.05
44457;BME280;30159;49.316;8.558;2022-10-04T10:20:59;101090.28;;;15.28;91.11
44457;BME280;30159;49.316;8.558;2022-10-04T10:23:45;101076.38;;;15.49;91.58
44457;BME280;30159;49.316;8.558;2022-10-04T10:26:28;101090.22;;;15.71;91.33
44457;BME280;30159;49.316;8.558;2022-10-04T10:29:35;101092.09;;;15.90;90.72
44457;BME280;30159;49.316;8.558;2022-10-04T10:35:27;101086.50;;;16.28;86.39
44457;BME280;30159;49.316;8.558;2022-10-04T10:38:22;101088.63;;;16.31;86.69
44457;BME280;30159;49.316;8.558;2022-10-04T10:41:01;101085.13;;;16.44;87.10
44457;BME280;30159;49.316;8.558;2022-10-04T10:43:43;101087.59;;;16.27;85.29
44457;BME280;30159;49.316;8.558;2022-10-04T10:46:27;101083.53;;;16.10;88.51
44457;BME280;30159;49.316;8.558;2022-10-04T10:49:19;101081.66;;;16.25;86.54
44457;BME280;30159;49.316;8.558;2022-10-04T10:52:13;101073.81;;;16.37;86.24
44457;BME280;30159;49.316;8.558;2022-10-04T10:55:03;101053.13;;;16.36;86.12
44457;BME280;30159;49.316;8.558;2022-10-04T10:57:55;101077.63;;;16.63;84.31
44457;BME280;30159;49.316;8.558;2022-10-04T11:00:39;101074.00;;;16.68;84.11
44457;BME280;30159;49.316;8.558;2022-10-04T11:03:35;101066.03;;;16.72;84.35
44457;BME280;30159;49.316;8.558;2022-10-04T11:09:29;101070.47;;;16.95;84.76
44457;BME280;30159;49.316;8.558;2022-10-04T11:12:21;101041.94;;;16.93;84.13
44457;BME280;30159;49.316;8.558;2022-10-04T11:15:04;101061.00;;;17.29;83.05
44457;BME280;30159;49.316;8.558;2022-10-04T11:20:59;101048.00;;;17.48;82.47
44457;BME280;30159;49.316;8.558;2022-10-04T11:24:05;100929.72;;;16.77;80.78
44457;BME280;30159;49.316;8.558;2022-10-04T11:26:54;101030.28;;;17.37;83.11
44457;BME280;30159;49.316;8.558;2022-10-04T11:29:46;101047.25;;;17.57;82.42
44457;BME280;30159;49.316;8.558;2022-10-04T11:35:46;101045.06;;;17.22;82.35
44457;BME280;30159;49.316;8.558;2022-10-04T11:38:28;101045.13;;;17.09;84.58
44457;BME280;30159;49.316;8.558;2022-10-04T11:41:12;101034.22;;;17.09;84.33
44457;BME280;30159;49.316;8.558;2022-10-04T11:44:02;101037.63;;;17.14;85.18
44457;BME280;30159;49.316;8.558;2022-10-04T11:46:43;101032.50;;;16.99;86.16
44457;BME280;30159;49.316;8.558;2022-10-04T11:49:24;101013.28;;;16.81;85.47
44457;BME280;30159;49.316;8.558;2022-10-04T11:55:48;100901.53;;;16.09;85.56
44457;BME280;30159;49.316;8.558;2022-10-04T11:58:30;101046.56;;;16.78;85.19
44457;BME280;30159;49.316;8.558;2022-10-04T12:01:17;100911.28;;;15.82;85.86
44457;BME280;30159;49.316;8.558;2022-10-04T12:04:14;101043.03;;;16.50;85.84
44457;BME280;30159;49.316;8.558;2022-10-04T12:07:01;101034.06;;;16.36;87.60
44457;BME280;30159;49.316;8.558;2022-10-04T12:09:38;101024.69;;;16.42;87.51
44457;BME280;30159;49.316;8.558;2022-10-04T12:12:24;101029.34;;;16.55;88.66
44457;BME280;30159;49.316;8.558;2022-10-04T12:15:21;101031.44;;;16.58;86.66
44457;BME280;30159;49.316;8.558;2022-10-04T12:18:15;101016.25;;;16.43;87.32
44457;BME280;30159;49.316;8.558;2022-10-04T12:21:02;101012.50;;;16.53;87.33
44457;BME280;30159;49.316;8.558;2022-10-04T12:30:08;100996.63;;;16.69;87.23
44457;BME280;30159;49.316;8.558;2022-10-04T12:32:48;100999.97;;;16.80;86.59
44457;BME280;30159;49.316;8.558;2022-10-04T12:35:24;100996.94;;;16.68;86.69
44457;BME280;30159;49.316;8.558;2022-10-04T12:38:20;100995.91;;;16.77;87.57
44457;BME280;30159;49.316;8.558;2022-10-04T12:40:55;100987.84;;;16.86;88.12
44457;BME280;30159;49.316;8.558;2022-10-04T12:43:33;100986.38;;;17.02;86.32
44457;BME280;30159;49.316;8.558;2022-10-04T12:46:15;100989.47;;;17.10;85.99
44457;BME280;30159;49.316;8.558;2022-10-04T12:48:55;100981.56;;;17.22;86.06
44457;BME280;30159;49.316;8.558;2022-10-04T12:51:34;100978.81;;;17.22;86.46
44457;BME280;30159;49.316;8.558;2022-10-04T12:54:18;100966.91;;;17.18;86.48
44457;BME280;30159;49.316;8.558;2022-10-04T12:56:53;100966.81;;;17.00;85.14
44457;BME280;30159;49.316;8.558;2022-10-04T12:59:37;100978.72;;;17.04;85.11
44457;BME280;30159;49.316;8.558;2022-10-04T13:02:19;100974.63;;;17.16;86.90
44457;BME280;30159;49.316;8.558;2022-10-04T13:04:52;100963.34;;;17.09;85.31
44457;BME280;30159;49.316;8.558;2022-10-04T13:07:43;100964.31;;;17.13;84.85
44457;BME280;30159;49.316;8.558;2022-10-04T13:10:33;100901.09;;;16.79;84.97
44457;BME280;30159;49.316;8.558;2022-10-04T13:16:21;100971.75;;;17.43;82.53
44457;BME280;30159;49.316;8.558;2022-10-04T13:18:59;100959.69;;;17.36;82.71
44457;BME280;30159;49.316;8.558;2022-10-04T13:21:51;100946.47;;;17.29;83.18
44457;BME280;30159;49.316;8.558;2022-10-04T13:24:26;100955.03;;;17.36;82.48
44457;BME280;30159;49.316;8.558;2022-10-04T13:26:59;100955.88;;;17.45;80.67
44457;BME280;30159;49.316;8.558;2022-10-04T13:29:31;100924.22;;;17.36;80.74
44457;BME280;30159;49.316;8.558;2022-10-04T13:32:01;100956.34;;;17.70;80.65
44457;BME280;30159;49.316;8.558;2022-10-04T13:34:37;100952.13;;;17.64;80.24
44457;BME280;30159;49.316;8.558;2022-10-04T13:37:24;100907.00;;;17.26;78.20
44457;BME280;30159;49.316;8.558;2022-10-04T13:40:16;100946.22;;;17.70;80.10
44457;BME280;30159;49.316;8.558;2022-10-04T13:42:58;100943.44;;;17.62;79.08
44457;BME280;30159;49.316;8.558;2022-10-04T13:45:38;100905.63;;;17.38;77.36
44457;BME280;30159;49.316;8.558;2022-10-04T13:48:25;100940.78;;;17.70;77.92
44457;BME280;30159;49.316;8.558;2022-10-04T13:51:13;100771.16;;;16.66;78.46
44457;BME280;30159;49.316;8.558;2022-10-04T13:53:51;100937.34;;;17.87;79.62
44457;BME280;30159;49.316;8.558;2022-10-04T13:56:52;100941.44;;;18.07;79.53
44457;BME280;30159;49.316;8.558;2022-10-04T13:59:28;100934.84;;;18.08;78.71
44457;BME280;30159;49.316;8.558;2022-10-04T14:02:21;100921.03;;;18.05;78.89
44457;BME280;30159;49.316;8.558;2022-10-04T14:05:11;100932.78;;;18.14;76.55
44457;BME280;30159;49.316;8.558;2022-10-04T14:07:49;100919.72;;;17.94;78.22
44457;BME280;30159;49.316;8.558;2022-10-04T14:10:40;100925.66;;;17.96;78.34
44457;BME280;30159;49.316;8.558;2022-10-04T14:13:38;100925.34;;;17.97;75.96
44457;BME280;30159;49.316;8.558;2022-10-04T14:16:29;100911.34;;;17.90;76.78
44457;BME280;30159;49.316;8.558;2022-10-04T14:19:33;100924.75;;;18.09;76.33
44457;BME280;30159;49.316;8.558;2022-10-04T14:25:52;100911.56;;;18.11;76.62
44457;BME280;30159;49.316;8.558;2022-10-04T14:28:52;100910.63;;;18.24;76.38
44457;BME280;30159;49.316;8.558;2022-10-04T14:31:54;100905.66;;;18.26;77.43
44457;BME280;30159;49.316;8.558;2022-10-04T14:34:50;100908.69;;;18.16;77.23
44457;BME280;30159;49.316;8.558;2022-10-04T14:37:52;100909.19;;;18.18;76.65
44457;BME280;30159;49.316;8.558;2022-10-04T14:40:49;100903.75;;;18.36;77.18
44457;BME280;30159;49.316;8.558;2022-10-04T14:43:54;100903.09;;;18.39;75.95